Disclaimer

Please do not use the information listed here in-flight or in-navigation, as they are not provided to us by the airports but are provided by volunteers, so they might be outdated.

Search


Regions


Airport information page

Radio informations:
VARADERO TWR - 118.4 MHz
VARADERO APP - 119.6 MHz
VARADERO RDO - 126.9 MHz

Airport informations:
Latitude: 23° 02' 04.00" N
Longitude: 081° 26' 07.00" W
Elevation: 210 feet - 64 meters
Operating hours: 24 hour operations
Operating agency: Civil government, landing fees and diplomatic clearance may be required
Timezone: UTC-5(-4DT) - Last Sunday in March to last Sunday in October
Fuel: Jet A1, without icing nhibitor.

100/130 MIL Spec, low lead, aviation gasoline (BLUE)

Runway information:
06/24 - 11490 x 148 feet< - >3502 x 45 meters

Recent METARs:
MUVR 131950Z 35007KT 9000 SCT020 30/25 Q1015
MUVR 131950Z 35007KT 9000 SCT020 30/25 Q1015
MUVR 132050Z 04010KT 9000 SCT020 30/25 Q1015

Airport on the map: